sensor_id;sensor_type;location;lat;lon;timestamp;P1;durP1;ratioP1;P2;durP2;ratioP2
29030;SDS011;16122;50.236;11.734;2022-11-23T00:02:25;2.83;;;1.97;;
29030;SDS011;16122;50.236;11.734;2022-11-23T00:04:51;2.80;;;2.23;;
29030;SDS011;16122;50.236;11.734;2022-11-23T00:07:17;2.37;;;1.90;;
29030;SDS011;16122;50.236;11.734;2022-11-23T00:09:43;2.20;;;2.00;;
29030;SDS011;16122;50.236;11.734;2022-11-23T00:12:08;2.30;;;1.70;;
29030;SDS011;16122;50.236;11.734;2022-11-23T00:14:34;2.23;;;1.80;;
29030;SDS011;16122;50.236;11.734;2022-11-23T00:17:00;4.30;;;1.90;;
29030;SDS011;16122;50.236;11.734;2022-11-23T00:19:26;2.20;;;1.80;;
29030;SDS011;16122;50.236;11.734;2022-11-23T00:21:52;2.03;;;1.83;;
29030;SDS011;16122;50.236;11.734;2022-11-23T00:24:18;1.73;;;1.63;;
29030;SDS011;16122;50.236;11.734;2022-11-23T00:26:43;3.20;;;1.60;;
29030;SDS011;16122;50.236;11.734;2022-11-23T00:29:09;1.50;;;1.33;;
29030;SDS011;16122;50.236;11.734;2022-11-23T00:31:37;2.90;;;1.73;;
29030;SDS011;16122;50.236;11.734;2022-11-23T00:34:05;3.40;;;1.73;;
29030;SDS011;16122;50.236;11.734;2022-11-23T00:36:31;2.10;;;1.87;;
29030;SDS011;16122;50.236;11.734;2022-11-23T00:38:58;1.93;;;1.50;;
29030;SDS011;16122;50.236;11.734;2022-11-23T00:41:24;2.27;;;2.00;;
29030;SDS011;16122;50.236;11.734;2022-11-23T00:43:51;2.03;;;1.83;;
29030;SDS011;16122;50.236;11.734;2022-11-23T00:46:19;2.20;;;1.73;;
29030;SDS011;16122;50.236;11.734;2022-11-23T00:48:47;1.80;;;1.70;;
29030;SDS011;16122;50.236;11.734;2022-11-23T00:51:15;2.30;;;2.17;;
29030;SDS011;16122;50.236;11.734;2022-11-23T00:53:43;1.63;;;1.53;;
29030;SDS011;16122;50.236;11.734;2022-11-23T00:56:10;2.90;;;1.50;;
29030;SDS011;16122;50.236;11.734;2022-11-23T00:58:36;2.33;;;1.60;;
29030;SDS011;16122;50.236;11.734;2022-11-23T01:01:04;1.60;;;1.40;;
29030;SDS011;16122;50.236;11.734;2022-11-23T01:03:36;3.20;;;2.20;;
29030;SDS011;16122;50.236;11.734;2022-11-23T01:06:04;1.53;;;1.43;;
29030;SDS011;16122;50.236;11.734;2022-11-23T01:08:32;2.30;;;1.50;;
29030;SDS011;16122;50.236;11.734;2022-11-23T01:11:02;1.90;;;1.53;;
29030;SDS011;16122;50.236;11.734;2022-11-23T01:13:33;1.60;;;1.50;;
29030;SDS011;16122;50.236;11.734;2022-11-23T01:16:00;1.47;;;1.30;;
29030;SDS011;16122;50.236;11.734;2022-11-23T01:18:26;1.53;;;1.30;;
29030;SDS011;16122;50.236;11.734;2022-11-23T01:20:52;3.17;;;1.47;;
29030;SDS011;16122;50.236;11.734;2022-11-23T01:23:19;2.53;;;1.40;;
29030;SDS011;16122;50.236;11.734;2022-11-23T01:25:45;1.60;;;1.50;;
29030;SDS011;16122;50.236;11.734;2022-11-23T01:28:11;1.17;;;1.07;;
29030;SDS011;16122;50.236;11.734;2022-11-23T01:30:37;1.53;;;1.40;;
29030;SDS011;16122;50.236;11.734;2022-11-23T01:33:02;1.83;;;1.50;;
29030;SDS011;16122;50.236;11.734;2022-11-23T01:35:29;1.40;;;1.30;;
29030;SDS011;16122;50.236;11.734;2022-11-23T01:37:56;5.47;;;1.90;;
29030;SDS011;16122;50.236;11.734;2022-11-23T01:40:21;1.10;;;1.00;;
29030;SDS011;16122;50.236;11.734;2022-11-23T01:42:54;2.03;;;1.13;;
29030;SDS011;16122;50.236;11.734;2022-11-23T01:45:52;2.27;;;1.83;;
29030;SDS011;16122;50.236;11.734;2022-11-23T01:48:21;2.07;;;1.50;;
29030;SDS011;16122;50.236;11.734;2022-11-23T01:51:03;1.67;;;1.57;;
29030;SDS011;16122;50.236;11.734;2022-11-23T01:53:33;1.73;;;1.30;;
29030;SDS011;16122;50.236;11.734;2022-11-23T01:56:01;1.60;;;1.37;;
29030;SDS011;16122;50.236;11.734;2022-11-23T01:58:31;2.90;;;1.80;;
29030;SDS011;16122;50.236;11.734;2022-11-23T02:01:02;1.67;;;1.57;;
29030;SDS011;16122;50.236;11.734;2022-11-23T02:03:29;1.60;;;1.30;;
29030;SDS011;16122;50.236;11.734;2022-11-23T02:06:00;2.17;;;1.40;;
29030;SDS011;16122;50.236;11.734;2022-11-23T02:08:27;2.53;;;1.67;;
29030;SDS011;16122;50.236;11.734;2022-11-23T02:10:55;2.17;;;1.43;;
29030;SDS011;16122;50.236;11.734;2022-11-23T02:13:23;2.80;;;1.60;;
29030;SDS011;16122;50.236;11.734;2022-11-23T02:15:51;1.73;;;1.63;;
29030;SDS011;16122;50.236;11.734;2022-11-23T02:18:20;1.83;;;1.37;;
29030;SDS011;16122;50.236;11.734;2022-11-23T02:20:48;1.73;;;1.50;;
29030;SDS011;16122;50.236;11.734;2022-11-23T02:26:12;1.47;;;1.37;;
29030;SDS011;16122;50.236;11.734;2022-11-23T02:28:48;2.90;;;1.50;;
29030;SDS011;16122;50.236;11.734;2022-11-23T02:31:19;2.80;;;1.60;;
29030;SDS011;16122;50.236;11.734;2022-11-23T02:33:45;2.10;;;1.60;;
29030;SDS011;16122;50.236;11.734;2022-11-23T02:41:52;1.67;;;1.57;;
29030;SDS011;16122;50.236;11.734;2022-11-23T02:46:53;3.00;;;1.77;;
29030;SDS011;16122;50.236;11.734;2022-11-23T02:49:20;1.73;;;1.47;;
29030;SDS011;16122;50.236;11.734;2022-11-23T02:51:45;2.20;;;1.23;;
29030;SDS011;16122;50.236;11.734;2022-11-23T02:54:11;1.93;;;1.40;;
29030;SDS011;16122;50.236;11.734;2022-11-23T02:56:37;1.40;;;1.30;;
29030;SDS011;16122;50.236;11.734;2022-11-23T02:59:03;1.63;;;1.47;;
29030;SDS011;16122;50.236;11.734;2022-11-23T03:01:28;1.40;;;1.30;;
29030;SDS011;16122;50.236;11.734;2022-11-23T03:03:54;1.70;;;1.50;;
29030;SDS011;16122;50.236;11.734;2022-11-23T03:06:20;1.73;;;1.40;;
29030;SDS011;16122;50.236;11.734;2022-11-23T03:08:47;2.27;;;1.60;;
29030;SDS011;16122;50.236;11.734;2022-11-23T03:11:13;1.40;;;1.20;;
29030;SDS011;16122;50.236;11.734;2022-11-23T03:13:39;1.63;;;1.20;;
29030;SDS011;16122;50.236;11.734;2022-11-23T03:16:05;1.80;;;1.70;;
29030;SDS011;16122;50.236;11.734;2022-11-23T03:18:31;1.60;;;1.50;;
29030;SDS011;16122;50.236;11.734;2022-11-23T03:21:01;1.30;;;1.20;;
29030;SDS011;16122;50.236;11.734;2022-11-23T03:23:28;1.50;;;1.40;;
29030;SDS011;16122;50.236;11.734;2022-11-23T03:25:55;1.43;;;1.33;;
29030;SDS011;16122;50.236;11.734;2022-11-23T03:28:23;1.20;;;1.10;;
29030;SDS011;16122;50.236;11.734;2022-11-23T03:30:49;1.47;;;1.30;;
29030;SDS011;16122;50.236;11.734;2022-11-23T03:33:15;1.77;;;1.50;;
29030;SDS011;16122;50.236;11.734;2022-11-23T03:35:42;1.47;;;1.23;;
29030;SDS011;16122;50.236;11.734;2022-11-23T03:38:21;1.77;;;1.50;;
29030;SDS011;16122;50.236;11.734;2022-11-23T03:40:47;1.30;;;1.20;;
29030;SDS011;16122;50.236;11.734;2022-11-23T03:43:21;1.80;;;1.40;;
29030;SDS011;16122;50.236;11.734;2022-11-23T03:45:47;1.70;;;1.37;;
29030;SDS011;16122;50.236;11.734;2022-11-23T03:48:14;1.60;;;1.50;;
29030;SDS011;16122;50.236;11.734;2022-11-23T03:50:40;2.47;;;1.77;;
29030;SDS011;16122;50.236;11.734;2022-11-23T03:53:06;2.13;;;1.60;;
29030;SDS011;16122;50.236;11.734;2022-11-23T03:55:32;2.40;;;1.70;;
29030;SDS011;16122;50.236;11.734;2022-11-23T03:57:59;2.40;;;1.87;;
29030;SDS011;16122;50.236;11.734;2022-11-23T04:00:29;1.83;;;1.70;;
29030;SDS011;16122;50.236;11.734;2022-11-23T04:02:56;1.43;;;1.20;;
29030;SDS011;16122;50.236;11.734;2022-11-23T04:05:41;2.73;;;1.63;;
29030;SDS011;16122;50.236;11.734;2022-11-23T04:08:32;1.50;;;1.40;;
29030;SDS011;16122;50.236;11.734;2022-11-23T04:10:58;1.83;;;1.60;;
29030;SDS011;16122;50.236;11.734;2022-11-23T04:13:35;1.93;;;1.73;;
29030;SDS011;16122;50.236;11.734;2022-11-23T04:16:01;2.70;;;1.40;;
29030;SDS011;16122;50.236;11.734;2022-11-23T04:18:27;1.73;;;1.63;;
29030;SDS011;16122;50.236;11.734;2022-11-23T04:20:53;1.60;;;1.50;;
29030;SDS011;16122;50.236;11.734;2022-11-23T04:23:18;1.40;;;1.30;;
29030;SDS011;16122;50.236;11.734;2022-11-23T04:25:47;5.00;;;1.90;;
29030;SDS011;16122;50.236;11.734;2022-11-23T04:28:13;2.87;;;1.80;;
29030;SDS011;16122;50.236;11.734;2022-11-23T04:30:40;1.43;;;1.10;;
29030;SDS011;16122;50.236;11.734;2022-11-23T04:33:06;1.40;;;1.30;;
29030;SDS011;16122;50.236;11.734;2022-11-23T04:35:32;1.73;;;1.40;;
29030;SDS011;16122;50.236;11.734;2022-11-23T04:38:00;1.93;;;1.67;;
29030;SDS011;16122;50.236;11.734;2022-11-23T04:40:28;1.47;;;1.37;;
29030;SDS011;16122;50.236;11.734;2022-11-23T04:42:59;1.60;;;1.50;;
29030;SDS011;16122;50.236;11.734;2022-11-23T04:45:25;1.50;;;1.40;;
29030;SDS011;16122;50.236;11.734;2022-11-23T04:47:53;1.47;;;1.37;;
29030;SDS011;16122;50.236;11.734;2022-11-23T04:50:20;2.60;;;1.50;;
29030;SDS011;16122;50.236;11.734;2022-11-23T04:52:50;1.50;;;1.40;;
29030;SDS011;16122;50.236;11.734;2022-11-23T04:55:20;1.77;;;1.40;;
29030;SDS011;16122;50.236;11.734;2022-11-23T04:57:54;1.83;;;1.13;;
29030;SDS011;16122;50.236;11.734;2022-11-23T05:00:21;1.60;;;1.50;;
29030;SDS011;16122;50.236;11.734;2022-11-23T05:02:47;4.40;;;1.30;;
29030;SDS011;16122;50.236;11.734;2022-11-23T05:05:22;2.00;;;1.30;;
29030;SDS011;16122;50.236;11.734;2022-11-23T05:07:48;1.53;;;1.33;;
29030;SDS011;16122;50.236;11.734;2022-11-23T05:10:16;1.30;;;1.13;;
29030;SDS011;16122;50.236;11.734;2022-11-23T05:12:43;1.93;;;1.60;;
29030;SDS011;16122;50.236;11.734;2022-11-23T05:15:11;3.17;;;1.37;;
29030;SDS011;16122;50.236;11.734;2022-11-23T05:17:39;1.33;;;1.23;;
29030;SDS011;16122;50.236;11.734;2022-11-23T05:20:11;1.90;;;1.47;;
29030;SDS011;16122;50.236;11.734;2022-11-23T05:22:42;2.10;;;1.60;;
29030;SDS011;16122;50.236;11.734;2022-11-23T05:25:11;2.30;;;1.30;;
29030;SDS011;16122;50.236;11.734;2022-11-23T05:27:37;2.20;;;1.63;;
29030;SDS011;16122;50.236;11.734;2022-11-23T05:30:03;3.07;;;1.50;;
29030;SDS011;16122;50.236;11.734;2022-11-23T05:32:30;2.43;;;1.90;;
29030;SDS011;16122;50.236;11.734;2022-11-23T05:34:58;2.20;;;1.73;;
29030;SDS011;16122;50.236;11.734;2022-11-23T05:37:27;2.67;;;1.80;;
29030;SDS011;16122;50.236;11.734;2022-11-23T05:39:58;6.10;;;2.00;;
29030;SDS011;16122;50.236;11.734;2022-11-23T05:42:24;3.90;;;1.60;;
29030;SDS011;16122;50.236;11.734;2022-11-23T05:44:54;2.40;;;1.60;;
29030;SDS011;16122;50.236;11.734;2022-11-23T05:47:26;1.60;;;1.50;;
29030;SDS011;16122;50.236;11.734;2022-11-23T05:49:52;2.23;;;1.63;;
29030;SDS011;16122;50.236;11.734;2022-11-23T05:52:21;2.30;;;1.60;;
29030;SDS011;16122;50.236;11.734;2022-11-23T05:54:50;2.73;;;1.60;;
29030;SDS011;16122;50.236;11.734;2022-11-23T05:57:16;1.80;;;1.70;;
29030;SDS011;16122;50.236;11.734;2022-11-23T05:59:43;2.53;;;1.80;;
29030;SDS011;16122;50.236;11.734;2022-11-23T06:02:19;15.43;;;2.13;;
29030;SDS011;16122;50.236;11.734;2022-11-23T06:04:48;2.10;;;1.80;;
29030;SDS011;16122;50.236;11.734;2022-11-23T06:07:18;3.13;;;1.80;;
29030;SDS011;16122;50.236;11.734;2022-11-23T06:09:59;2.23;;;1.43;;
29030;SDS011;16122;50.236;11.734;2022-11-23T06:12:28;3.73;;;1.93;;
29030;SDS011;16122;50.236;11.734;2022-11-23T06:14:56;2.60;;;1.47;;
29030;SDS011;16122;50.236;11.734;2022-11-23T06:17:24;1.67;;;1.57;;
29030;SDS011;16122;50.236;11.734;2022-11-23T06:19:52;2.80;;;1.97;;
29030;SDS011;16122;50.236;11.734;2022-11-23T06:22:18;2.60;;;1.67;;
29030;SDS011;16122;50.236;11.734;2022-11-23T06:25:04;3.10;;;1.50;;
29030;SDS011;16122;50.236;11.734;2022-11-23T06:27:50;2.03;;;1.83;;
29030;SDS011;16122;50.236;11.734;2022-11-23T06:30:23;3.43;;;1.47;;
29030;SDS011;16122;50.236;11.734;2022-11-23T06:32:50;2.70;;;1.60;;
29030;SDS011;16122;50.236;11.734;2022-11-23T06:35:17;2.80;;;1.60;;
29030;SDS011;16122;50.236;11.734;2022-11-23T06:37:43;1.83;;;1.50;;
29030;SDS011;16122;50.236;11.734;2022-11-23T06:40:12;2.23;;;1.43;;
29030;SDS011;16122;50.236;11.734;2022-11-23T06:42:38;2.07;;;1.67;;
29030;SDS011;16122;50.236;11.734;2022-11-23T06:45:07;3.07;;;1.93;;
29030;SDS011;16122;50.236;11.734;2022-11-23T06:47:35;4.30;;;1.57;;
29030;SDS011;16122;50.236;11.734;2022-11-23T06:50:00;1.57;;;1.30;;
29030;SDS011;16122;50.236;11.734;2022-11-23T06:52:27;2.80;;;1.37;;
29030;SDS011;16122;50.236;11.734;2022-11-23T06:54:53;4.40;;;1.63;;
29030;SDS011;16122;50.236;11.734;2022-11-23T06:57:20;2.70;;;1.30;;
29030;SDS011;16122;50.236;11.734;2022-11-23T06:59:47;1.60;;;1.50;;
29030;SDS011;16122;50.236;11.734;2022-11-23T07:02:14;2.13;;;1.60;;
29030;SDS011;16122;50.236;11.734;2022-11-23T07:04:40;5.80;;;1.60;;
29030;SDS011;16122;50.236;11.734;2022-11-23T07:07:13;2.00;;;1.30;;
29030;SDS011;16122;50.236;11.734;2022-11-23T07:09:46;1.60;;;1.40;;
29030;SDS011;16122;50.236;11.734;2022-11-23T07:12:26;1.90;;;1.60;;
29030;SDS011;16122;50.236;11.734;2022-11-23T07:14:52;2.20;;;1.57;;
29030;SDS011;16122;50.236;11.734;2022-11-23T07:17:18;1.53;;;1.43;;
29030;SDS011;16122;50.236;11.734;2022-11-23T07:19:45;1.87;;;1.27;;
29030;SDS011;16122;50.236;11.734;2022-11-23T07:22:10;1.70;;;1.60;;
29030;SDS011;16122;50.236;11.734;2022-11-23T07:24:38;2.27;;;1.50;;
29030;SDS011;16122;50.236;11.734;2022-11-23T07:27:05;3.53;;;1.30;;
29030;SDS011;16122;50.236;11.734;2022-11-23T07:29:31;1.50;;;1.20;;
29030;SDS011;16122;50.236;11.734;2022-11-23T07:31:57;2.23;;;1.60;;
29030;SDS011;16122;50.236;11.734;2022-11-23T07:34:26;4.77;;;1.30;;
29030;SDS011;16122;50.236;11.734;2022-11-23T07:36:53;1.50;;;1.20;;
29030;SDS011;16122;50.236;11.734;2022-11-23T07:39:19;1.77;;;1.50;;
29030;SDS011;16122;50.236;11.734;2022-11-23T07:41:47;2.77;;;1.33;;
29030;SDS011;16122;50.236;11.734;2022-11-23T07:44:20;1.83;;;1.20;;
29030;SDS011;16122;50.236;11.734;2022-11-23T07:46:46;2.27;;;1.50;;
29030;SDS011;16122;50.236;11.734;2022-11-23T07:49:12;1.10;;;1.00;;
29030;SDS011;16122;50.236;11.734;2022-11-23T07:51:37;1.30;;;1.20;;
29030;SDS011;16122;50.236;11.734;2022-11-23T07:54:03;2.80;;;1.47;;
29030;SDS011;16122;50.236;11.734;2022-11-23T07:56:29;1.33;;;1.10;;
29030;SDS011;16122;50.236;11.734;2022-11-23T07:58:55;1.70;;;1.60;;
29030;SDS011;16122;50.236;11.734;2022-11-23T08:01:21;1.87;;;1.60;;
29030;SDS011;16122;50.236;11.734;2022-11-23T08:03:47;1.27;;;1.17;;
29030;SDS011;16122;50.236;11.734;2022-11-23T08:06:13;2.00;;;1.40;;
29030;SDS011;16122;50.236;11.734;2022-11-23T08:08:39;1.80;;;1.53;;
29030;SDS011;16122;50.236;11.734;2022-11-23T08:11:06;1.50;;;1.10;;
29030;SDS011;16122;50.236;11.734;2022-11-23T08:13:34;3.40;;;1.53;;
29030;SDS011;16122;50.236;11.734;2022-11-23T08:16:01;1.83;;;1.70;;
29030;SDS011;16122;50.236;11.734;2022-11-23T08:18:27;2.30;;;1.67;;
29030;SDS011;16122;50.236;11.734;2022-11-23T08:20:53;1.70;;;1.40;;
29030;SDS011;16122;50.236;11.734;2022-11-23T08:23:22;1.47;;;1.37;;
29030;SDS011;16122;50.236;11.734;2022-11-23T08:25:49;1.57;;;1.47;;
29030;SDS011;16122;50.236;11.734;2022-11-23T08:28:15;1.90;;;1.30;;
29030;SDS011;16122;50.236;11.734;2022-11-23T08:30:41;2.43;;;1.77;;
29030;SDS011;16122;50.236;11.734;2022-11-23T08:33:07;2.23;;;1.53;;
29030;SDS011;16122;50.236;11.734;2022-11-23T08:35:34;1.47;;;1.37;;
29030;SDS011;16122;50.236;11.734;2022-11-23T08:38:02;1.37;;;1.27;;
29030;SDS011;16122;50.236;11.734;2022-11-23T08:40:28;1.57;;;1.30;;
29030;SDS011;16122;50.236;11.734;2022-11-23T08:42:54;2.00;;;1.20;;
29030;SDS011;16122;50.236;11.734;2022-11-23T08:45:20;1.63;;;1.43;;
29030;SDS011;16122;50.236;11.734;2022-11-23T08:47:46;1.47;;;1.30;;
29030;SDS011;16122;50.236;11.734;2022-11-23T08:50:12;2.47;;;1.63;;
29030;SDS011;16122;50.236;11.734;2022-11-23T08:52:38;4.30;;;1.70;;
29030;SDS011;16122;50.236;11.734;2022-11-23T08:55:04;2.00;;;1.30;;
29030;SDS011;16122;50.236;11.734;2022-11-23T08:57:30;1.83;;;1.63;;
29030;SDS011;16122;50.236;11.734;2022-11-23T08:59:56;2.10;;;1.47;;
29030;SDS011;16122;50.236;11.734;2022-11-23T09:02:22;2.10;;;1.20;;
29030;SDS011;16122;50.236;11.734;2022-11-23T09:04:48;1.57;;;1.20;;
29030;SDS011;16122;50.236;11.734;2022-11-23T09:07:14;1.50;;;1.10;;
29030;SDS011;16122;50.236;11.734;2022-11-23T09:09:40;2.43;;;1.27;;
29030;SDS011;16122;50.236;11.734;2022-11-23T09:12:06;1.47;;;1.20;;
29030;SDS011;16122;50.236;11.734;2022-11-23T09:14:31;1.43;;;1.23;;
29030;SDS011;16122;50.236;11.734;2022-11-23T09:16:59;1.43;;;1.33;;
29030;SDS011;16122;50.236;11.734;2022-11-23T09:19:26;2.23;;;1.43;;
29030;SDS011;16122;50.236;11.734;2022-11-23T09:21:52;2.67;;;1.53;;
29030;SDS011;16122;50.236;11.734;2022-11-23T09:24:18;1.40;;;1.30;;
29030;SDS011;16122;50.236;11.734;2022-11-23T09:26:44;1.50;;;1.40;;
29030;SDS011;16122;50.236;11.734;2022-11-23T09:29:10;1.63;;;1.30;;
29030;SDS011;16122;50.236;11.734;2022-11-23T09:31:36;1.63;;;1.10;;
29030;SDS011;16122;50.236;11.734;2022-11-23T09:34:03;1.30;;;1.20;;
29030;SDS011;16122;50.236;11.734;2022-11-23T09:36:29;1.20;;;1.10;;
29030;SDS011;16122;50.236;11.734;2022-11-23T09:38:55;2.23;;;1.00;;
29030;SDS011;16122;50.236;11.734;2022-11-23T09:44:04;1.37;;;1.27;;
29030;SDS011;16122;50.236;11.734;2022-11-23T09:46:41;1.70;;;1.10;;
29030;SDS011;16122;50.236;11.734;2022-11-23T09:49:32;1.30;;;1.10;;
29030;SDS011;16122;50.236;11.734;2022-11-23T09:52:01;1.67;;;1.10;;
29030;SDS011;16122;50.236;11.734;2022-11-23T09:54:29;1.40;;;1.20;;
29030;SDS011;16122;50.236;11.734;2022-11-23T09:56:58;1.33;;;0.97;;
29030;SDS011;16122;50.236;11.734;2022-11-23T09:59:35;1.30;;;1.07;;
29030;SDS011;16122;50.236;11.734;2022-11-23T10:02:07;2.47;;;1.00;;
29030;SDS011;16122;50.236;11.734;2022-11-23T10:05:02;2.13;;;1.10;;
29030;SDS011;16122;50.236;11.734;2022-11-23T10:07:32;1.50;;;1.10;;
29030;SDS011;16122;50.236;11.734;2022-11-23T10:15:23;2.60;;;1.70;;
29030;SDS011;16122;50.236;11.734;2022-11-23T10:26:38;1.50;;;1.03;;
29030;SDS011;16122;50.236;11.734;2022-11-23T10:29:13;1.40;;;1.20;;
29030;SDS011;16122;50.236;11.734;2022-11-23T10:31:49;1.67;;;1.13;;
29030;SDS011;16122;50.236;11.734;2022-11-23T10:34:19;1.30;;;1.00;;
29030;SDS011;16122;50.236;11.734;2022-11-23T10:36:55;1.10;;;1.00;;
29030;SDS011;16122;50.236;11.734;2022-11-23T10:39:24;1.70;;;1.40;;
29030;SDS011;16122;50.236;11.734;2022-11-23T10:41:52;1.30;;;1.20;;
29030;SDS011;16122;50.236;11.734;2022-11-23T10:44:32;1.43;;;1.17;;
29030;SDS011;16122;50.236;11.734;2022-11-23T10:47:02;1.17;;;1.07;;
29030;SDS011;16122;50.236;11.734;2022-11-23T10:49:29;3.00;;;1.10;;
29030;SDS011;16122;50.236;11.734;2022-11-23T10:52:01;1.57;;;0.90;;
29030;SDS011;16122;50.236;11.734;2022-11-23T10:54:31;1.27;;;1.10;;
29030;SDS011;16122;50.236;11.734;2022-11-23T10:57:19;1.40;;;1.30;;
29030;SDS011;16122;50.236;11.734;2022-11-23T10:59:55;1.37;;;1.10;;
29030;SDS011;16122;50.236;11.734;2022-11-23T11:08:02;2.17;;;1.17;;
29030;SDS011;16122;50.236;11.734;2022-11-23T11:10:45;1.47;;;1.00;;
29030;SDS011;16122;50.236;11.734;2022-11-23T11:16:04;1.90;;;1.13;;
29030;SDS011;16122;50.236;11.734;2022-11-23T11:18:40;2.37;;;1.47;;
29030;SDS011;16122;50.236;11.734;2022-11-23T11:21:16;2.70;;;1.33;;
29030;SDS011;16122;50.236;11.734;2022-11-23T11:23:54;1.83;;;1.37;;
29030;SDS011;16122;50.236;11.734;2022-11-23T11:26:38;1.47;;;1.30;;
29030;SDS011;16122;50.236;11.734;2022-11-23T11:29:32;2.10;;;1.30;;
29030;SDS011;16122;50.236;11.734;2022-11-23T11:32:08;2.70;;;1.47;;
29030;SDS011;16122;50.236;11.734;2022-11-23T11:35:28;1.63;;;1.20;;
29030;SDS011;16122;50.236;11.734;2022-11-23T11:37:55;1.80;;;1.30;;
29030;SDS011;16122;50.236;11.734;2022-11-23T11:43:02;2.70;;;1.20;;
29030;SDS011;16122;50.236;11.734;2022-11-23T11:45:54;2.40;;;1.20;;
29030;SDS011;16122;50.236;11.734;2022-11-23T11:48:24;1.60;;;1.30;;
29030;SDS011;16122;50.236;11.734;2022-11-23T11:51:12;2.40;;;1.20;;
29030;SDS011;16122;50.236;11.734;2022-11-23T11:53:50;2.50;;;1.37;;
29030;SDS011;16122;50.236;11.734;2022-11-23T12:09:47;1.70;;;1.17;;
29030;SDS011;16122;50.236;11.734;2022-11-23T12:12:18;0.90;;;0.90;;
29030;SDS011;16122;50.236;11.734;2022-11-23T12:14:45;1.20;;;1.10;;
29030;SDS011;16122;50.236;11.734;2022-11-23T12:17:46;1.57;;;1.20;;
29030;SDS011;16122;50.236;11.734;2022-11-23T12:23:33;1.40;;;1.30;;
29030;SDS011;16122;50.236;11.734;2022-11-23T12:33:54;4.50;;;2.77;;
29030;SDS011;16122;50.236;11.734;2022-11-23T12:42:25;17.43;;;8.70;;
29030;SDS011;16122;50.236;11.734;2022-11-23T12:50:20;14.93;;;8.63;;
29030;SDS011;16122;50.236;11.734;2022-11-23T12:58:40;13.07;;;6.70;;
29030;SDS011;16122;50.236;11.734;2022-11-23T13:12:38;12.10;;;5.97;;
29030;SDS011;16122;50.236;11.734;2022-11-23T13:15:41;8.20;;;5.93;;
29030;SDS011;16122;50.236;11.734;2022-11-23T13:23:49;13.27;;;5.50;;
29030;SDS011;16122;50.236;11.734;2022-11-23T13:26:17;7.80;;;5.13;;
29030;SDS011;16122;50.236;11.734;2022-11-23T13:28:48;7.50;;;4.90;;
29030;SDS011;16122;50.236;11.734;2022-11-23T13:31:21;12.00;;;5.60;;
29030;SDS011;16122;50.236;11.734;2022-11-23T13:33:55;10.27;;;5.80;;
29030;SDS011;16122;50.236;11.734;2022-11-23T13:38:55;10.27;;;4.70;;
29030;SDS011;16122;50.236;11.734;2022-11-23T13:42:04;8.07;;;4.40;;
29030;SDS011;16122;50.236;11.734;2022-11-23T13:44:26;6.53;;;4.30;;
29030;SDS011;16122;50.236;11.734;2022-11-23T13:57:39;8.60;;;4.40;;
29030;SDS011;16122;50.236;11.734;2022-11-23T14:14:43;8.07;;;4.27;;
29030;SDS011;16122;50.236;11.734;2022-11-23T14:25:17;9.00;;;3.90;;
29030;SDS011;16122;50.236;11.734;2022-11-23T14:33:24;7.53;;;3.97;;
29030;SDS011;16122;50.236;11.734;2022-11-23T14:41:58;8.10;;;3.20;;
29030;SDS011;16122;50.236;11.734;2022-11-23T14:44:27;8.70;;;3.27;;
29030;SDS011;16122;50.236;11.734;2022-11-23T14:47:04;6.13;;;4.00;;
29030;SDS011;16122;50.236;11.734;2022-11-23T14:49:31;10.17;;;4.10;;
29030;SDS011;16122;50.236;11.734;2022-11-23T14:51:57;7.03;;;3.70;;
29030;SDS011;16122;50.236;11.734;2022-11-23T14:54:25;6.90;;;3.93;;
29030;SDS011;16122;50.236;11.734;2022-11-23T14:56:53;6.47;;;3.10;;
29030;SDS011;16122;50.236;11.734;2022-11-23T15:01:56;7.73;;;3.33;;
29030;SDS011;16122;50.236;11.734;2022-11-23T15:04:35;5.40;;;3.33;;
29030;SDS011;16122;50.236;11.734;2022-11-23T15:08:08;6.17;;;3.33;;
29030;SDS011;16122;50.236;11.734;2022-11-23T15:13:23;5.47;;;3.10;;
29030;SDS011;16122;50.236;11.734;2022-11-23T15:15:52;5.90;;;2.70;;
29030;SDS011;16122;50.236;11.734;2022-11-23T15:18:32;4.60;;;2.63;;
29030;SDS011;16122;50.236;11.734;2022-11-23T15:21:24;4.50;;;2.63;;
29030;SDS011;16122;50.236;11.734;2022-11-23T15:23:51;5.37;;;3.07;;
29030;SDS011;16122;50.236;11.734;2022-11-23T15:26:20;5.23;;;2.77;;
29030;SDS011;16122;50.236;11.734;2022-11-23T15:28:48;4.30;;;3.07;;
29030;SDS011;16122;50.236;11.734;2022-11-23T15:31:15;6.50;;;3.43;;
29030;SDS011;16122;50.236;11.734;2022-11-23T15:33:52;3.90;;;2.10;;
29030;SDS011;16122;50.236;11.734;2022-11-23T15:36:23;7.40;;;3.77;;
29030;SDS011;16122;50.236;11.734;2022-11-23T15:38:52;4.07;;;2.30;;
29030;SDS011;16122;50.236;11.734;2022-11-23T15:41:18;5.00;;;3.00;;
29030;SDS011;16122;50.236;11.734;2022-11-23T15:43:54;7.03;;;3.10;;
29030;SDS011;16122;50.236;11.734;2022-11-23T15:46:22;4.23;;;2.57;;
29030;SDS011;16122;50.236;11.734;2022-11-23T15:48:51;3.70;;;2.40;;
29030;SDS011;16122;50.236;11.734;2022-11-23T15:51:23;6.13;;;2.57;;
29030;SDS011;16122;50.236;11.734;2022-11-23T15:53:56;4.07;;;2.30;;
29030;SDS011;16122;50.236;11.734;2022-11-23T15:56:28;4.50;;;2.20;;
29030;SDS011;16122;50.236;11.734;2022-11-23T15:58:57;4.30;;;2.33;;
29030;SDS011;16122;50.236;11.734;2022-11-23T16:01:29;2.00;;;1.80;;
29030;SDS011;16122;50.236;11.734;2022-11-23T16:03:56;9.37;;;3.23;;
29030;SDS011;16122;50.236;11.734;2022-11-23T16:06:38;3.77;;;2.20;;
29030;SDS011;16122;50.236;11.734;2022-11-23T16:12:01;5.53;;;2.43;;
29030;SDS011;16122;50.236;11.734;2022-11-23T16:14:29;5.33;;;3.07;;
29030;SDS011;16122;50.236;11.734;2022-11-23T16:17:18;4.80;;;2.57;;
29030;SDS011;16122;50.236;11.734;2022-11-23T16:19:51;4.20;;;1.97;;
29030;SDS011;16122;50.236;11.734;2022-11-23T16:22:20;5.47;;;2.50;;
29030;SDS011;16122;50.236;11.734;2022-11-23T16:24:59;3.47;;;2.33;;
29030;SDS011;16122;50.236;11.734;2022-11-23T16:27:31;4.93;;;2.87;;
29030;SDS011;16122;50.236;11.734;2022-11-23T16:29:57;2.90;;;1.93;;
29030;SDS011;16122;50.236;11.734;2022-11-23T16:32:27;3.03;;;1.50;;
29030;SDS011;16122;50.236;11.734;2022-11-23T16:34:57;6.23;;;2.20;;
29030;SDS011;16122;50.236;11.734;2022-11-23T16:37:33;4.90;;;2.67;;
29030;SDS011;16122;50.236;11.734;2022-11-23T16:39:59;4.10;;;2.37;;
29030;SDS011;16122;50.236;11.734;2022-11-23T16:42:25;3.03;;;2.73;;
29030;SDS011;16122;50.236;11.734;2022-11-23T16:44:51;6.60;;;2.40;;
29030;SDS011;16122;50.236;11.734;2022-11-23T16:49:47;6.93;;;2.90;;
29030;SDS011;16122;50.236;11.734;2022-11-23T16:52:13;4.67;;;2.30;;
29030;SDS011;16122;50.236;11.734;2022-11-23T16:54:39;8.67;;;2.67;;
29030;SDS011;16122;50.236;11.734;2022-11-23T16:57:05;6.33;;;2.50;;
29030;SDS011;16122;50.236;11.734;2022-11-23T16:59:31;3.33;;;2.33;;
29030;SDS011;16122;50.236;11.734;2022-11-23T17:01:57;3.77;;;2.53;;
29030;SDS011;16122;50.236;11.734;2022-11-23T17:04:23;3.03;;;1.80;;
29030;SDS011;16122;50.236;11.734;2022-11-23T17:06:50;2.90;;;2.20;;
29030;SDS011;16122;50.236;11.734;2022-11-23T17:09:15;7.00;;;2.60;;
29030;SDS011;16122;50.236;11.734;2022-11-23T17:11:42;4.10;;;2.13;;
29030;SDS011;16122;50.236;11.734;2022-11-23T17:14:14;3.90;;;2.67;;
29030;SDS011;16122;50.236;11.734;2022-11-23T17:16:40;8.50;;;2.90;;
29030;SDS011;16122;50.236;11.734;2022-11-23T17:19:13;3.83;;;2.00;;
29030;SDS011;16122;50.236;11.734;2022-11-23T17:21:41;4.60;;;2.43;;
29030;SDS011;16122;50.236;11.734;2022-11-23T17:24:06;3.17;;;2.33;;
29030;SDS011;16122;50.236;11.734;2022-11-23T17:26:33;3.50;;;2.03;;